Time;durP1;ratioP1;P1;durP2;ratioP2;P2;SDS_P1;SDS_P2;PMS_P1;PMS_P2;Temp;Humidity;BMP_temperature;BMP_pressure;BME280_temperature;BME280_humidity;BME280_pressure;Samples;Min_cycle;Max_cycle;Signal;HPM_P1;HPM_P2
2022/01/29 00:02:59;;;;;;;3.80;1.52;;;;;;;4.77;41.96;101420.19;18370503;32;20142;-71
2022/01/29 00:13:03;;;;;;;1.65;1.08;;;;;;;4.44;44.19;101428.41;18369564;32;20097;-72
2022/01/29 00:23:07;;;;;;;3.67;1.80;;;;;;;4.20;45.11;101446.41;18368557;32;20190;-71
2022/01/29 00:33:12;;;;;;;2.78;1.17;;;;;;;4.31;45.63;101450.28;18368524;32;20112;-72
2022/01/29 00:43:15;;;;;;;3.85;1.30;;;;;;;3.96;48.13;101455.78;18368305;32;20107;-71
2022/01/29 00:53:19;;;;;;;3.42;1.50;;;;;;;3.93;48.22;101473.75;18367126;32;20454;-71
2022/01/29 01:03:23;;;;;;;3.10;1.30;;;;;;;3.81;47.48;101452.56;18367284;32;20097;-71
2022/01/29 01:13:28;;;;;;;5.25;1.50;;;;;;;3.87;45.73;101463.13;18366806;32;20109;-71
2022/01/29 01:23:31;;;;;;;2.70;1.42;;;;;;;4.20;46.14;101493.81;18366025;32;20134;-70
2022/01/29 01:33:36;;;;;;;2.72;1.15;;;;;;;3.92;46.31;101509.84;18365627;32;20375;-71
2022/01/29 01:43:39;;;;;;;3.65;1.60;;;;;;;3.96;46.20;101493.66;18364847;32;20120;-71
2022/01/29 01:53:44;;;;;;;4.05;1.85;;;;;;;4.20;45.95;101511.00;18364386;32;20094;-71
2022/01/29 02:03:47;;;;;;;4.65;1.60;;;;;;;3.78;48.26;101514.41;18370501;32;20097;-71
2022/01/29 02:13:53;;;;;;;4.35;1.73;;;;;;;3.94;48.10;101521.16;18372421;32;20123;-69
2022/01/29 02:23:58;;;;;;;2.75;1.35;;;;;;;3.98;48.96;101518.75;18371957;32;20104;-71
2022/01/29 02:34:03;;;;;;;3.75;1.30;;;;;;;3.50;49.04;101523.50;18371882;32;20097;-71
2022/01/29 02:44:08;;;;;;;4.75;1.42;;;;;;;3.97;48.07;101536.78;18371670;32;20107;-71
2022/01/29 02:54:12;;;;;;;2.17;1.30;;;;;;;3.85;47.44;101558.69;18371503;32;20438;-71
2022/01/29 03:04:17;;;;;;;5.32;1.75;;;;;;;4.05;47.39;101573.28;18371048;32;20477;-71
2022/01/29 03:14:20;;;;;;;2.90;1.40;;;;;;;4.03;47.28;101571.50;18371786;32;20123;-70
2022/01/29 03:24:25;;;;;;;2.60;1.48;;;;;;;4.06;47.70;101582.78;18371484;32;20120;-71
2022/01/29 03:34:29;;;;;;;4.70;1.65;;;;;;;3.88;47.34;101582.06;18371210;32;20089;-72
2022/01/29 03:44:33;;;;;;;4.43;1.30;;;;;;;3.67;47.21;101574.22;18369781;32;20127;-71
2022/01/29 03:54:36;;;;;;;4.47;1.75;;;;;;;4.03;45.70;101568.03;18369596;32;20147;-71
2022/01/29 04:04:41;;;;;;;4.57;1.77;;;;;;;3.71;46.73;101570.09;18369060;32;20110;-71
2022/01/29 04:14:44;;;;;;;3.70;1.42;;;;;;;3.72;46.87;101575.31;18369062;32;20109;-71
2022/01/29 04:24:49;;;;;;;6.43;1.95;;;;;;;3.93;46.06;101571.94;18367460;32;20090;-71
2022/01/29 04:34:52;;;;;;;3.80;1.40;;;;;;;4.01;45.51;101578.31;18368493;32;20117;-71
2022/01/29 04:44:57;;;;;;;4.93;1.60;;;;;;;4.07;44.92;101585.44;18368062;32;20112;-72
2022/01/29 04:55:00;;;;;;;4.07;1.50;;;;;;;4.30;44.53;101581.28;18367617;32;20469;-71
2022/01/29 05:05:06;;;;;;;3.83;1.45;;;;;;;4.34;44.49;101584.88;18367340;32;20119;-72
2022/01/29 05:15:15;;;;;;;5.50;1.85;;;;;;;4.29;43.43;101574.34;18366756;32;20093;-71
2022/01/29 05:35:41;;;;;;;5.57;2.03;;;;;;;4.21;43.66;101605.81;18369905;32;20127;-71
2022/01/29 05:45:45;;;;;;;5.22;2.35;;;;;;;4.11;44.35;101622.66;18374514;32;20100;-71
2022/01/29 05:55:48;;;;;;;5.97;1.98;;;;;;;4.01;43.76;101627.41;18373171;32;20143;-71
2022/01/29 06:05:54;;;;;;;5.72;2.10;;;;;;;3.51;45.07;101631.13;18372731;32;20095;-71
2022/01/29 06:15:57;;;;;;;4.55;2.20;;;;;;;3.26;46.12;101633.44;18372495;32;20109;-71
2022/01/29 06:26:03;;;;;;;6.05;2.25;;;;;;;3.09;46.09;101626.63;18371769;32;20343;-71
2022/01/29 06:36:07;;;;;;;5.97;2.42;;;;;;;2.75;46.66;101638.72;18371893;32;20093;-72
2022/01/29 06:46:12;;;;;;;4.28;1.77;;;;;;;2.62;48.15;101648.44;18370978;32;20387;-71
2022/01/29 06:56:16;;;;;;;3.45;1.58;;;;;;;3.65;45.69;101632.69;18371123;32;20094;-72
2022/01/29 07:06:20;;;;;;;4.60;2.30;;;;;;;3.73;44.24;101635.59;18370663;32;20423;-72
2022/01/29 07:16:24;;;;;;;8.02;2.70;;;;;;;4.98;41.00;101632.34;18370547;32;20397;-73
2022/01/29 07:26:28;;;;;;;4.62;1.65;;;;;;;5.72;38.02;101632.56;18370222;32;20118;-71
2022/01/29 07:36:32;;;;;;;9.10;2.78;;;;;;;5.71;37.35;101625.63;18370010;32;20109;-72
2022/01/29 07:46:36;;;;;;;6.80;2.05;;;;;;;5.64;37.17;101634.84;18370343;32;20097;-71
2022/01/29 07:56:41;;;;;;;6.22;3.12;;;;;;;6.70;33.74;101620.47;18368506;32;20408;-72
2022/01/29 08:06:46;;;;;;;12.60;4.05;;;;;;;6.88;36.79;101638.38;18368827;32;20109;-72
2022/01/29 08:16:49;;;;;;;6.85;3.10;;;;;;;6.87;33.96;101637.47;18367878;32;20102;-72
2022/01/29 08:26:53;;;;;;;4.53;1.70;;;;;;;7.43;34.70;101631.44;18365105;32;20376;-71
2022/01/29 08:37:01;;;;;;;5.57;2.00;;;;;;;7.33;34.00;101625.09;18369364;32;20093;-72
2022/01/29 08:47:06;;;;;;;9.27;2.70;;;;;;;7.83;32.73;101631.75;18368220;32;20089;-72
2022/01/29 08:57:10;;;;;;;5.78;2.00;;;;;;;7.60;33.31;101624.16;18368050;32;20120;-71
2022/01/29 09:07:14;;;;;;;5.90;1.70;;;;;;;7.53;34.39;101640.41;18366331;32;20119;-72
2022/01/29 09:17:18;;;;;;;4.70;2.08;;;;;;;7.51;32.31;101660.28;18356627;32;105858;-72
2022/01/29 09:27:22;;;;;;;5.72;1.83;;;;;;;8.49;33.18;101654.34;18362906;32;20141;-73
2022/01/29 09:37:26;;;;;;;11.60;3.67;;;;;;;7.60;34.81;101652.75;18365155;32;20101;-74
2022/01/29 09:47:33;;;;;;;6.62;2.60;;;;;;;7.91;34.95;101648.47;18365109;32;20108;-74
2022/01/29 09:57:37;;;;;;;8.77;2.42;;;;;;;8.00;35.00;101642.63;18364647;32;20163;-71
2022/01/29 10:07:41;;;;;;;5.25;1.98;;;;;;;8.23;34.53;101633.72;18363640;32;20129;-72
2022/01/29 10:17:47;;;;;;;9.43;2.65;;;;;;;8.22;34.57;101609.44;18363447;32;20366;-72
2022/01/29 10:28:11;;;;;;;11.25;2.55;;;;;;;8.14;35.25;101601.41;18372000;32;20146;-71
2022/01/29 10:38:14;;;;;;;8.68;2.30;;;;;;;8.14;35.83;101598.78;18371860;32;20101;-72
2022/01/29 10:48:19;;;;;;;12.05;3.78;;;;;;;8.12;37.39;101591.81;18371720;32;20422;-72
2022/01/29 10:58:28;;;;;;;8.55;3.28;;;;;;;8.16;39.35;101581.53;18371154;32;20081;-73
2022/01/29 11:08:34;;;;;;;14.27;3.97;;;;;;;8.44;39.71;101582.25;18370628;32;20151;-72
2022/01/29 11:18:37;;;;;;;12.63;3.60;;;;;;;8.06;41.19;101566.50;18370425;32;20108;-71
2022/01/29 11:28:42;;;;;;;12.60;3.72;;;;;;;8.14;41.25;101551.13;18369913;32;20129;-71
2022/01/29 11:38:46;;;;;;;9.48;2.65;;;;;;;7.89;42.56;101533.12;18369809;32;20176;-72
2022/01/29 11:48:57;;;;;;;13.88;4.12;;;;;;;8.00;41.97;101533.41;18369294;32;20141;-73
2022/01/29 11:59:28;;;;;;;16.85;6.47;;;;;;;8.61;41.44;101506.34;18369444;32;20098;-74
2022/01/29 12:09:43;;;;;;;16.40;5.00;;;;;;;8.54;42.29;101494.91;18370242;32;20139;-73
2022/01/29 12:19:47;;;;;;;11.90;4.18;;;;;;;8.39;42.76;101477.16;18369057;32;20429;-74
2022/01/29 12:29:52;;;;;;;11.70;4.40;;;;;;;8.43;43.17;101465.97;18368589;32;20101;-73
2022/01/29 12:40:06;;;;;;;15.23;4.20;;;;;;;8.44;43.27;101457.34;18368006;32;20093;-74
2022/01/29 12:50:19;;;;;;;13.90;4.90;;;;;;;8.31;43.64;101413.66;18368275;32;20101;-73
2022/01/29 13:00:23;;;;;;;17.52;4.80;;;;;;;7.95;44.19;101402.41;18367733;32;20089;-73
2022/01/29 13:10:33;;;;;;;20.33;7.70;;;;;;;8.08;44.22;101380.19;18379428;32;20476;-71
2022/01/29 13:20:37;;;;;;;23.80;8.38;;;;;;;8.40;43.28;101382.66;18430688;32;20481;-71
2022/01/29 13:30:42;;;;;;;16.40;6.07;;;;;;;8.32;43.69;101384.19;18429984;32;20453;-72
2022/01/29 13:40:48;;;;;;;11.57;4.97;;;;;;;7.58;46.95;101355.56;18429774;32;20089;-71
2022/01/29 13:50:55;;;;;;;15.48;5.80;;;;;;;7.66;47.10;101347.09;18429114;32;20092;-73
2022/01/29 14:01:00;;;;;;;12.55;5.30;;;;;;;7.45;47.98;101348.31;18437162;32;20141;-71
2022/01/29 14:11:07;;;;;;;16.98;3.72;;;;;;;7.19;49.43;101338.09;18436777;32;20183;-71
2022/01/29 14:21:11;;;;;;;10.73;4.78;;;;;;;7.55;48.37;101311.31;18436403;32;20503;-70
2022/01/29 14:31:16;;;;;;;14.52;4.18;;;;;;;6.94;49.84;101286.38;18435881;32;20101;-71
2022/01/29 14:41:19;;;;;;;12.43;4.47;;;;;;;7.07;50.11;101281.53;18435567;32;20123;-71
2022/01/29 14:51:24;;;;;;;8.20;3.70;;;;;;;7.33;49.69;101270.94;18435049;32;20077;-74
2022/01/29 15:01:28;;;;;;;12.70;4.47;;;;;;;7.22;50.10;101252.50;18434449;32;20123;-71
2022/01/29 15:11:35;;;;;;;15.95;5.72;;;;;;;7.35;49.40;101236.38;18434515;32;20093;-70
2022/01/29 15:21:39;;;;;;;14.52;4.55;;;;;;;7.13;49.21;101236.69;18434540;32;20734;-71
2022/01/29 15:31:43;;;;;;;12.75;4.18;;;;;;;7.11;49.99;101205.47;18434206;32;20093;-71
2022/01/29 15:41:47;;;;;;;9.23;4.10;;;;;;;6.66;54.04;101205.19;18433980;32;20112;-72
2022/01/29 15:51:51;;;;;;;12.77;4.57;;;;;;;6.68;54.73;101197.47;18433930;32;20103;-71
2022/01/29 16:01:56;;;;;;;14.07;3.90;;;;;;;6.75;54.69;101185.53;18433575;32;20097;-71
2022/01/29 16:12:01;;;;;;;14.82;4.82;;;;;;;6.66;54.97;101179.25;18432106;32;20746;-71
2022/01/29 16:22:05;;;;;;;12.10;4.05;;;;;;;6.66;55.86;101174.06;18426853;32;20093;-71
2022/01/29 16:32:10;;;;;;;20.55;9.50;;;;;;;6.51;56.75;101164.16;18425349;32;20538;-71
2022/01/29 16:42:13;;;;;;;12.30;3.58;;;;;;;6.46;58.04;101144.12;18431562;32;20134;-71
2022/01/29 16:52:18;;;;;;;10.27;3.30;;;;;;;6.29;59.03;101135.88;18432177;32;20441;-71
2022/01/29 17:02:22;;;;;;;13.98;5.60;;;;;;;6.26;59.36;101113.34;18431692;32;20569;-74
2022/01/29 17:12:27;;;;;;;14.05;5.28;;;;;;;6.22;59.84;101102.00;18431373;32;20411;-72
2022/01/29 17:22:31;;;;;;;11.10;5.00;;;;;;;6.13;60.48;101082.75;18430816;32;20098;-74
2022/01/29 17:32:36;;;;;;;10.70;3.75;;;;;;;5.90;62.14;101073.47;18429882;32;20097;-71
2022/01/29 17:42:39;;;;;;;10.10;3.45;;;;;;;5.69;63.05;101059.09;18430344;32;20085;-71
2022/01/29 17:52:44;;;;;;;11.45;3.80;;;;;;;5.48;64.74;101048.09;18428971;32;20101;-70
2022/01/29 18:02:47;;;;;;;10.68;3.90;;;;;;;4.77;67.27;101044.22;18428089;32;20097;-71
2022/01/29 18:12:51;;;;;;;15.88;4.70;;;;;;;4.85;67.55;101025.53;18427648;32;20107;-71
2022/01/29 18:22:55;;;;;;;14.45;4.62;;;;;;;5.04;67.63;101015.75;18426815;32;20218;-71
2022/01/29 18:32:59;;;;;;;10.38;4.55;;;;;;;5.12;67.89;101013.37;18426298;32;20093;-71
2022/01/29 18:43:03;;;;;;;10.27;4.32;;;;;;;4.76;69.70;101008.84;18430506;32;20093;-74
2022/01/29 18:53:08;;;;;;;13.10;4.65;;;;;;;4.64;69.88;100992.09;18435517;32;20453;-70
2022/01/29 19:03:11;;;;;;;11.85;4.25;;;;;;;4.68;69.41;100988.78;18436262;32;20108;-70
2022/01/29 19:13:16;;;;;;;15.68;4.60;;;;;;;4.41;70.39;100971.56;18434723;32;20365;-71
2022/01/29 19:23:21;;;;;;;13.90;5.28;;;;;;;4.52;70.89;100952.94;18434105;32;20107;-71
2022/01/29 19:33:26;;;;;;;10.85;4.32;;;;;;;4.36;71.58;100946.38;18434232;32;20093;-71
2022/01/29 19:43:29;;;;;;;15.88;5.10;;;;;;;4.52;71.33;100929.66;18434035;32;20084;-72
2022/01/29 19:53:34;;;;;;;11.00;4.60;;;;;;;4.46;71.57;100917.44;18433798;32;20107;-71
2022/01/29 20:03:37;;;;;;;13.68;4.72;;;;;;;4.43;71.25;100896.62;18433505;32;20136;-71
2022/01/29 20:13:42;;;;;;;11.02;4.43;;;;;;;4.38;71.70;100882.69;18433419;32;20073;-72
2022/01/29 20:23:46;;;;;;;10.57;5.03;;;;;;;4.52;71.51;100849.50;18433240;32;20389;-71
2022/01/29 20:33:52;;;;;;;13.15;6.57;;;;;;;4.77;70.86;100853.69;18432846;32;20111;-72
2022/01/29 20:43:56;;;;;;;12.25;5.90;;;;;;;4.75;70.49;100842.44;18432196;32;20140;-72
2022/01/29 20:54:01;;;;;;;14.45;5.20;;;;;;;5.07;69.77;100815.69;18431871;32;20085;-72
2022/01/29 21:04:06;;;;;;;14.45;6.37;;;;;;;4.70;70.89;100811.25;18430823;32;20111;-72
2022/01/29 21:14:12;;;;;;;16.25;6.32;;;;;;;4.70;71.24;100777.62;18425393;32;20096;-72
2022/01/29 21:24:15;;;;;;;14.63;6.03;;;;;;;4.75;71.03;100759.66;18430148;32;20441;-72
2022/01/29 21:34:29;;;;;;;13.32;6.60;;;;;;;4.89;70.54;100739.34;18430252;32;20412;-72
2022/01/29 21:44:34;;;;;;;12.85;5.97;;;;;;;4.91;70.26;100693.69;18430505;32;20093;-72
2022/01/29 21:54:38;;;;;;;13.62;6.22;;;;;;;4.89;70.62;100699.66;18428884;32;20094;-72
2022/01/29 22:04:42;;;;;;;13.93;5.80;;;;;;;4.79;70.90;100681.31;18428354;32;20408;-72
2022/01/29 22:14:47;;;;;;;10.52;5.00;;;;;;;4.88;71.25;100670.31;18427827;32;20154;-73
2022/01/29 22:25:11;;;;;;;11.88;5.20;;;;;;;5.17;68.64;100651.19;18436703;32;20179;-72
2022/01/29 22:35:16;;;;;;;10.95;5.05;;;;;;;5.12;67.40;100631.25;18436912;32;20097;-71
2022/01/29 22:45:19;;;;;;;11.80;4.65;;;;;;;4.97;65.81;100641.22;18435644;32;20089;-72
2022/01/29 22:55:23;;;;;;;10.70;4.62;;;;;;;5.02;64.84;100624.06;18435439;32;20126;-72
2022/01/29 23:05:27;;;;;;;13.13;5.28;;;;;;;5.28;63.95;100590.16;18435198;32;20436;-71
2022/01/29 23:15:36;;;;;;;11.20;4.97;;;;;;;5.18;64.91;100578.75;18434868;32;20101;-72
2022/01/29 23:25:54;;;;;;;13.82;5.60;;;;;;;5.32;64.46;100560.94;18434280;32;20085;-71
2022/01/29 23:35:58;;;;;;;10.73;5.07;;;;;;;5.06;64.46;100527.59;18434797;32;20093;-74
2022/01/29 23:46:13;;;;;;;12.15;5.43;;;;;;;5.05;63.88;100528.44;18434950;32;20115;-72
2022/01/29 23:56:17;;;;;;;12.13;4.75;;;;;;;4.95;64.40;100513.53;18433611;32;20352;-74
